Time;durP1;ratioP1;P1;durP2;ratioP2;P2;SDS_P1;SDS_P2;PMS_P1;PMS_P2;Temp;Humidity;BMP_temperature;BMP_pressure;BME280_temperature;BME280_humidity;BME280_pressure;Samples;Min_cycle;Max_cycle;Signal;HPM_P1;HPM_P2
2022/03/12 00:01:10;;;;;;;;;;;23.30;38.10;;;;;;1561289;75;751;-65
2022/03/12 00:03:13;;;;;;;;;;;23.30;38.10;;;;;;1564964;74;722;-67
2022/03/12 00:05:15;;;;;;;;;;;23.30;38.10;;;;;;1561152;75;1938;-66
2022/03/12 00:07:17;;;;;;;;;;;23.40;38.20;;;;;;1561136;75;715;-67
2022/03/12 00:09:19;;;;;;;;;;;23.30;38.20;;;;;;1561134;75;718;-68
2022/03/12 00:11:21;;;;;;;;;;;23.30;38.20;;;;;;1566111;74;731;-69
2022/03/12 00:13:24;;;;;;;;;;;23.40;38.20;;;;;;1561031;75;1161;-66
2022/03/12 00:15:27;;;;;;;;;;;23.30;38.20;;;;;;1561197;75;796;-67
2022/03/12 00:17:32;;;;;;;;;;;23.30;38.30;;;;;;1565970;74;743;-66
2022/03/12 00:19:32;;;;;;;;;;;23.30;38.30;;;;;;1564344;74;1670;-68
2022/03/12 00:21:42;;;;;;;;;;;23.30;38.30;;;;;;1566282;74;703;-67
2022/03/12 00:23:43;;;;;;;;;;;23.30;38.30;;;;;;1563094;74;1513;-65
2022/03/12 00:25:48;;;;;;;;;;;23.30;38.40;;;;;;1568394;74;1906;-67
2022/03/12 00:27:50;;;;;;;;;;;23.40;38.40;;;;;;1569972;74;1674;-67
2022/03/12 00:29:54;;;;;;;;;;;23.30;38.50;;;;;;1561333;74;778;-69
2022/03/12 00:31:56;;;;;;;;;;;23.40;38.50;;;;;;1563058;74;863;-67
2022/03/12 00:33:58;;;;;;;;;;;23.40;38.60;;;;;;1558620;75;1184;-67
2022/03/12 00:36:01;;;;;;;;;;;23.30;38.60;;;;;;1561336;75;793;-66
2022/03/12 00:38:03;;;;;;;;;;;23.40;38.50;;;;;;1561255;75;723;-63
2022/03/12 00:40:05;;;;;;;;;;;23.30;38.60;;;;;;1560168;74;784;-67
2022/03/12 00:42:07;;;;;;;;;;;23.30;38.60;;;;;;1561966;74;740;-67
2022/03/12 00:44:09;;;;;;;;;;;23.40;38.60;;;;;;1567097;74;1179;-67
2022/03/12 00:46:11;;;;;;;;;;;23.30;38.60;;;;;;1560812;74;1938;-71
2022/03/12 00:48:13;;;;;;;;;;;23.30;38.60;;;;;;1563634;74;721;-68
2022/03/12 00:50:15;;;;;;;;;;;23.30;38.60;;;;;;1561171;75;704;-69
2022/03/12 00:52:18;;;;;;;;;;;23.40;38.60;;;;;;1556460;75;743;-66
2022/03/12 00:54:19;;;;;;;;;;;23.40;38.60;;;;;;1560743;75;1169;-67
2022/03/12 00:56:21;;;;;;;;;;;23.40;38.60;;;;;;1561144;75;876;-69
2022/03/12 00:58:23;;;;;;;;;;;23.40;38.60;;;;;;1561087;75;808;-67
2022/03/12 01:00:26;;;;;;;;;;;23.40;38.70;;;;;;1558673;75;788;-67
2022/03/12 01:02:28;;;;;;;;;;;23.40;38.90;;;;;;1568512;74;794;-68
2022/03/12 01:04:30;;;;;;;;;;;23.40;38.80;;;;;;1568413;74;1140;-67
2022/03/12 01:06:34;;;;;;;;;;;23.30;38.90;;;;;;1560940;74;1930;-69
2022/03/12 01:08:35;;;;;;;;;;;23.40;38.90;;;;;;1560929;75;1648;-68
2022/03/12 01:10:37;;;;;;;;;;;23.40;38.90;;;;;;1560903;75;834;-68
2022/03/12 01:12:39;;;;;;;;;;;23.40;38.90;;;;;;1561146;75;734;-69
2022/03/12 01:14:41;;;;;;;;;;;23.40;38.90;;;;;;1583642;73;1081;-67
2022/03/12 01:16:43;;;;;;;;;;;23.40;38.90;;;;;;1569389;74;773;-67
2022/03/12 01:18:45;;;;;;;;;;;23.40;38.90;;;;;;1569078;74;758;-67
2022/03/12 01:20:47;;;;;;;;;;;23.40;39.00;;;;;;1568026;74;742;-69
2022/03/12 01:22:49;;;;;;;;;;;23.40;39.00;;;;;;1564949;74;755;-69
2022/03/12 01:24:51;;;;;;;;;;;23.40;39.00;;;;;;1563561;74;1142;-67
2022/03/12 01:26:52;;;;;;;;;;;23.40;39.00;;;;;;1562219;74;1936;-68
2022/03/12 01:28:54;;;;;;;;;;;23.40;39.10;;;;;;1563189;74;768;-67
2022/03/12 01:30:58;;;;;;;;;;;23.40;39.00;;;;;;1566861;74;755;-67
2022/03/12 01:33:00;;;;;;;;;;;23.40;39.00;;;;;;1563360;74;719;-68
2022/03/12 01:35:02;;;;;;;;;;;23.40;39.10;;;;;;1555549;74;3156;-69
2022/03/12 01:37:04;;;;;;;;;;;23.40;39.20;;;;;;1532146;76;810;-67
2022/03/12 01:39:05;;;;;;;;;;;23.40;39.20;;;;;;1531071;76;761;-66
2022/03/12 01:41:08;;;;;;;;;;;23.50;39.30;;;;;;1515781;76;758;-68
2022/03/12 01:43:10;;;;;;;;;;;23.40;39.10;;;;;;1530619;77;793;-67
2022/03/12 01:45:13;;;;;;;;;;;23.40;39.10;;;;;;1509408;77;1248;-69
2022/03/12 01:47:16;;;;;;;;;;;23.50;39.30;;;;;;1537388;76;1932;-67
2022/03/12 01:49:22;;;;;;;;;;;23.40;39.20;;;;;;1535205;76;746;-68
2022/03/12 01:51:24;;;;;;;;;;;23.50;39.30;;;;;;1535363;76;753;-67
2022/03/12 01:53:31;;;;;;;;;;;23.40;39.20;;;;;;1534724;76;724;-68
2022/03/12 01:55:35;;;;;;;;;;;23.40;39.20;;;;;;1534742;76;1488;-67
2022/03/12 01:57:33;;;;;;;;;;;23.40;39.20;;;;;;1533428;76;1592;-68
2022/03/12 01:59:36;;;;;;;;;;;23.50;39.40;;;;;;1537895;76;749;-70
2022/03/12 02:01:38;;;;;;;;;;;23.40;39.20;;;;;;1536349;76;776;-67
2022/03/12 02:03:40;;;;;;;;;;;23.40;39.20;;;;;;1537518;76;731;-67
2022/03/12 02:05:42;;;;;;;;;;;23.50;39.40;;;;;;1541581;76;1142;-68
2022/03/12 02:07:43;;;;;;;;;;;23.40;39.20;;;;;;1535198;76;1952;-67
2022/03/12 02:09:46;;;;;;;;;;;23.40;39.30;;;;;;1534984;76;795;-67
2022/03/12 02:11:51;;;;;;;;;;;23.40;39.40;;;;;;1542955;76;754;-68
2022/03/12 02:13:53;;;;;;;;;;;23.50;39.40;;;;;;1539175;76;1529;-67
2022/03/12 02:15:57;;;;;;;;;;;23.40;39.40;;;;;;1533825;76;1139;-67
2022/03/12 02:17:59;;;;;;;;;;;23.40;39.40;;;;;;1533929;76;1879;-68
2022/03/12 02:20:01;;;;;;;;;;;23.50;39.40;;;;;;1536888;76;752;-68
2022/03/12 02:22:04;;;;;;;;;;;23.40;39.30;;;;;;1537300;76;727;-69
2022/03/12 02:24:07;;;;;;;;;;;23.40;39.30;;;;;;1523810;76;1696;-68
2022/03/12 02:26:09;;;;;;;;;;;23.50;39.40;;;;;;1535054;76;1935;-70
2022/03/12 02:28:17;;;;;;;;;;;23.40;39.30;;;;;;1534692;76;706;-67
2022/03/12 02:30:20;;;;;;;;;;;23.50;39.50;;;;;;1538018;76;726;-68
2022/03/12 02:32:22;;;;;;;;;;;23.40;39.30;;;;;;1535614;76;793;-68
2022/03/12 02:34:26;;;;;;;;;;;23.40;39.40;;;;;;1536025;76;1170;-68
2022/03/12 02:36:28;;;;;;;;;;;23.40;39.30;;;;;;1534046;76;796;-68
2022/03/12 02:38:30;;;;;;;;;;;23.40;39.40;;;;;;1534514;76;731;-68
2022/03/12 02:40:32;;;;;;;;;;;23.50;39.50;;;;;;1535671;76;802;-68
2022/03/12 02:42:37;;;;;;;;;;;23.50;39.60;;;;;;1535251;76;760;-68
2022/03/12 02:44:38;;;;;;;;;;;23.40;39.40;;;;;;1535932;76;1669;-71
2022/03/12 02:46:40;;;;;;;;;;;23.50;39.60;;;;;;1534546;76;1955;-67
2022/03/12 02:48:43;;;;;;;;;;;23.40;39.40;;;;;;1516971;77;685;-67
2022/03/12 02:50:45;;;;;;;;;;;23.50;39.60;;;;;;1518502;78;1709;-68
2022/03/12 02:52:47;;;;;;;;;;;23.50;39.60;;;;;;1487895;78;809;-65
2022/03/12 02:54:50;;;;;;;;;;;23.50;39.70;;;;;;1518425;77;1178;-68
2022/03/12 02:56:51;;;;;;;;;;;23.50;39.70;;;;;;1509326;78;745;-67
2022/03/12 02:58:54;;;;;;;;;;;23.50;39.70;;;;;;1460109;79;953;-69
2022/03/12 03:00:57;;;;;;;;;;;23.40;39.50;;;;;;1541621;76;798;-67
2022/03/12 03:03:01;;;;;;;;;;;23.50;39.70;;;;;;1543330;76;778;-66
2022/03/12 03:05:02;;;;;;;;;;;23.50;39.70;;;;;;1541589;76;1667;-66
2022/03/12 03:07:04;;;;;;;;;;;23.50;39.70;;;;;;1540438;76;1925;-66
2022/03/12 03:09:06;;;;;;;;;;;23.40;39.60;;;;;;1536668;76;739;-66
2022/03/12 03:11:16;;;;;;;;;;;23.50;39.70;;;;;;1511486;76;783;-66
2022/03/12 03:13:21;;;;;;;;;;;23.40;39.70;;;;;;1543639;76;776;-67
2022/03/12 03:15:22;;;;;;;;;;;23.40;39.60;;;;;;1539384;76;1150;-67
2022/03/12 03:17:25;;;;;;;;;;;23.50;39.70;;;;;;1540785;76;905;-68
2022/03/12 03:19:27;;;;;;;;;;;23.50;39.70;;;;;;1537661;76;724;-67
2022/03/12 03:21:29;;;;;;;;;;;23.40;39.70;;;;;;1540402;76;776;-66
2022/03/12 03:23:31;;;;;;;;;;;23.40;39.70;;;;;;1540412;76;721;-67
2022/03/12 03:25:33;;;;;;;;;;;23.50;39.90;;;;;;1540119;76;1130;-67
2022/03/12 03:27:35;;;;;;;;;;;23.50;39.90;;;;;;1536431;76;1921;-67
2022/03/12 03:29:37;;;;;;;;;;;23.50;39.90;;;;;;1539356;76;679;-65
2022/03/12 03:31:39;;;;;;;;;;;23.50;39.90;;;;;;1540338;76;828;-65
2022/03/12 03:33:41;;;;;;;;;;;23.60;39.90;;;;;;1539081;76;768;-66
2022/03/12 03:35:43;;;;;;;;;;;23.50;40.00;;;;;;1540738;76;1108;-64
2022/03/12 03:37:45;;;;;;;;;;;23.60;39.90;;;;;;1540654;76;713;-65
2022/03/12 03:39:47;;;;;;;;;;;23.60;39.80;;;;;;1536527;76;767;-64
2022/03/12 03:41:48;;;;;;;;;;;23.70;39.90;;;;;;1539096;76;805;-66
2022/03/12 03:43:50;;;;;;;;;;;23.60;39.70;;;;;;1547581;76;804;-66
2022/03/12 03:45:53;;;;;;;;;;;23.70;39.80;;;;;;1540080;76;1131;-65
2022/03/12 03:47:55;;;;;;;;;;;23.80;39.70;;;;;;1535399;76;1935;-67
2022/03/12 03:49:57;;;;;;;;;;;23.80;39.70;;;;;;1538522;76;785;-67
2022/03/12 03:51:59;;;;;;;;;;;23.80;39.60;;;;;;1546575;76;774;-68
2022/03/12 03:54:01;;;;;;;;;;;23.80;39.50;;;;;;1541007;76;791;-68
2022/03/12 03:56:04;;;;;;;;;;;23.90;39.60;;;;;;1541622;76;1071;-67
2022/03/12 03:58:06;;;;;;;;;;;23.90;39.50;;;;;;1546182;76;783;-68
2022/03/12 04:00:09;;;;;;;;;;;23.90;39.40;;;;;;1541770;76;774;-68
2022/03/12 04:02:10;;;;;;;;;;;24.00;39.50;;;;;;1539261;76;748;-69
2022/03/12 04:04:12;;;;;;;;;;;23.90;39.60;;;;;;1535484;76;1132;-67
2022/03/12 04:06:15;;;;;;;;;;;23.90;39.60;;;;;;1541428;76;704;-69
2022/03/12 04:08:17;;;;;;;;;;;23.90;39.60;;;;;;1537116;76;1923;-69
2022/03/12 04:10:18;;;;;;;;;;;23.80;39.40;;;;;;1538780;76;730;-68
2022/03/12 04:12:20;;;;;;;;;;;23.90;39.60;;;;;;1541585;76;713;-68
2022/03/12 04:14:25;;;;;;;;;;;23.90;39.60;;;;;;1539150;76;1158;-67
2022/03/12 04:16:27;;;;;;;;;;;24.00;39.60;;;;;;1540977;76;1679;-67
2022/03/12 04:18:29;;;;;;;;;;;23.80;39.50;;;;;;1542419;76;680;-67
2022/03/12 04:20:32;;;;;;;;;;;24.00;39.60;;;;;;1540936;76;926;-68
2022/03/12 04:22:36;;;;;;;;;;;23.90;39.70;;;;;;1541116;76;773;-68
2022/03/12 04:24:38;;;;;;;;;;;23.90;39.70;;;;;;1540691;76;1146;-70
2022/03/12 04:26:40;;;;;;;;;;;23.90;39.70;;;;;;1537160;76;824;-66
2022/03/12 04:28:42;;;;;;;;;;;23.90;39.80;;;;;;1538571;76;1920;-68
2022/03/12 04:30:44;;;;;;;;;;;23.80;39.80;;;;;;1545477;76;1133;-68
2022/03/12 04:32:46;;;;;;;;;;;23.80;39.80;;;;;;1537878;76;743;-67
2022/03/12 04:34:48;;;;;;;;;;;23.90;39.90;;;;;;1541219;76;1174;-68
2022/03/12 04:36:50;;;;;;;;;;;23.90;40.00;;;;;;1537115;76;807;-67
2022/03/12 04:38:52;;;;;;;;;;;23.90;39.90;;;;;;1537003;76;912;-66
2022/03/12 04:40:55;;;;;;;;;;;23.90;39.90;;;;;;1537007;76;794;-68
2022/03/12 04:42:57;;;;;;;;;;;24.00;39.80;;;;;;1541546;76;701;-68
2022/03/12 04:44:59;;;;;;;;;;;23.90;39.80;;;;;;1536450;76;1111;-69
2022/03/12 04:47:00;;;;;;;;;;;23.90;40.00;;;;;;1539352;76;1957;-67
2022/03/12 04:49:02;;;;;;;;;;;23.90;39.90;;;;;;1541432;76;759;-67
2022/03/12 04:51:04;;;;;;;;;;;23.90;39.90;;;;;;1541607;76;771;-67
2022/03/12 04:53:08;;;;;;;;;;;23.90;39.80;;;;;;1536116;76;776;-67
2022/03/12 04:55:14;;;;;;;;;;;24.00;39.80;;;;;;1538730;76;1174;-69
2022/03/12 04:57:16;;;;;;;;;;;24.00;39.70;;;;;;1532460;76;1634;-68
2022/03/12 04:59:18;;;;;;;;;;;24.00;39.70;;;;;;1539035;76;811;-67
2022/03/12 05:01:20;;;;;;;;;;;24.00;39.70;;;;;;1538960;76;792;-69
2022/03/12 05:03:23;;;;;;;;;;;24.00;39.60;;;;;;1539072;76;818;-68
2022/03/12 05:05:24;;;;;;;;;;;24.10;39.70;;;;;;1538842;76;1205;-67
2022/03/12 05:07:27;;;;;;;;;;;24.00;39.60;;;;;;1538946;76;1939;-68
2022/03/12 05:09:28;;;;;;;;;;;24.00;39.50;;;;;;1539410;76;800;-69
2022/03/12 05:11:32;;;;;;;;;;;24.00;39.50;;;;;;1536768;76;828;-68
2022/03/12 05:13:34;;;;;;;;;;;24.00;39.50;;;;;;1542266;76;730;-65
2022/03/12 05:15:39;;;;;;;;;;;24.00;39.40;;;;;;1539267;76;1154;-68
2022/03/12 05:17:43;;;;;;;;;;;24.00;39.40;;;;;;1538736;76;748;-69
2022/03/12 05:19:45;;;;;;;;;;;24.00;39.40;;;;;;1540547;76;720;-68
2022/03/12 05:21:47;;;;;;;;;;;24.10;39.50;;;;;;1550611;76;1052;-68
2022/03/12 05:23:49;;;;;;;;;;;24.10;39.60;;;;;;1548215;76;705;-68
2022/03/12 05:25:51;;;;;;;;;;;24.10;39.60;;;;;;1550227;76;1083;-71
2022/03/12 05:27:53;;;;;;;;;;;24.00;39.70;;;;;;1542543;76;1946;-71
2022/03/12 05:29:55;;;;;;;;;;;24.00;39.70;;;;;;1543229;76;782;-70
2022/03/12 05:31:57;;;;;;;;;;;24.10;39.80;;;;;;1541452;76;762;-70
2022/03/12 05:33:59;;;;;;;;;;;24.10;40.00;;;;;;1538818;76;1057;-72
2022/03/12 05:36:00;;;;;;;;;;;24.00;39.80;;;;;;1544418;76;1096;-71
2022/03/12 05:38:02;;;;;;;;;;;24.00;39.90;;;;;;1540783;76;825;-71
2022/03/12 05:40:07;;;;;;;;;;;24.10;40.00;;;;;;1549535;76;779;-71
2022/03/12 05:42:09;;;;;;;;;;;24.10;40.00;;;;;;1539720;76;919;-70
2022/03/12 05:44:15;;;;;;;;;;;24.10;40.00;;;;;;1544584;76;1193;-72
2022/03/12 05:46:16;;;;;;;;;;;24.10;40.00;;;;;;1543880;76;1481;-70
2022/03/12 05:48:17;;;;;;;;;;;24.10;40.00;;;;;;1546830;76;1923;-72
2022/03/12 05:50:21;;;;;;;;;;;24.10;39.90;;;;;;1548607;76;749;-71
2022/03/12 05:52:23;;;;;;;;;;;24.10;39.90;;;;;;1545739;76;740;-70
2022/03/12 05:54:26;;;;;;;;;;;24.10;39.90;;;;;;1548992;76;1096;-71
2022/03/12 05:56:27;;;;;;;;;;;24.10;39.80;;;;;;1538175;76;1061;-71
2022/03/12 05:58:35;;;;;;;;;;;24.20;39.90;;;;;;1527054;77;735;-70
2022/03/12 06:00:33;;;;;;;;;;;24.10;40.00;;;;;;1517980;77;1658;-70
2022/03/12 06:02:35;;;;;;;;;;;24.20;40.00;;;;;;1526588;77;724;-70
2022/03/12 06:04:36;;;;;;;;;;;24.20;40.00;;;;;;1542859;77;1139;-70
2022/03/12 06:06:44;;;;;;;;;;;24.20;40.00;;;;;;1542894;77;793;-69
2022/03/12 06:08:42;;;;;;;;;;;24.20;40.00;;;;;;1541512;77;1935;-71
2022/03/12 06:10:50;;;;;;;;;;;24.20;40.10;;;;;;1542424;77;743;-71
2022/03/12 06:12:48;;;;;;;;;;;24.20;40.10;;;;;;1541651;77;1605;-68
2022/03/12 06:14:52;;;;;;;;;;;24.20;40.10;;;;;;1542714;77;1127;-71
2022/03/12 06:16:54;;;;;;;;;;;24.20;40.00;;;;;;1542887;77;2062;-71
2022/03/12 06:18:56;;;;;;;;;;;24.20;40.00;;;;;;1542749;76;822;-72
2022/03/12 06:20:58;;;;;;;;;;;24.20;40.00;;;;;;1534241;77;683;-73
2022/03/12 06:23:00;;;;;;;;;;;24.20;40.00;;;;;;1527198;76;675;-73
2022/03/12 06:25:01;;;;;;;;;;;24.20;39.90;;;;;;1538418;77;1131;-71
2022/03/12 06:27:03;;;;;;;;;;;24.20;39.90;;;;;;1492346;78;720;-73
2022/03/12 06:29:12;;;;;;;;;;;24.20;39.90;;;;;;1465925;81;1936;-71
2022/03/12 06:31:11;;;;;;;;;;;24.20;39.90;;;;;;1521017;77;1651;-73
2022/03/12 06:33:16;;;;;;;;;;;24.30;40.00;;;;;;1537561;77;668;-72
2022/03/12 06:35:17;;;;;;;;;;;24.20;39.90;;;;;;1537851;77;1680;-72
2022/03/12 06:37:19;;;;;;;;;;;24.30;40.00;;;;;;1538200;77;773;-71
2022/03/12 06:39:21;;;;;;;;;;;24.20;39.90;;;;;;1532821;76;719;-71
2022/03/12 06:41:23;;;;;;;;;;;24.30;40.00;;;;;;1525200;77;690;-70
2022/03/12 06:43:26;;;;;;;;;;;24.30;40.00;;;;;;1519644;77;759;-65
2022/03/12 06:45:30;;;;;;;;;;;24.20;40.00;;;;;;1536742;77;1192;-65
2022/03/12 06:47:32;;;;;;;;;;;24.30;39.70;;;;;;1537166;77;1879;-65
2022/03/12 06:49:33;;;;;;;;;;;24.40;39.40;;;;;;1537359;76;1856;-66
2022/03/12 06:51:38;;;;;;;;;;;24.30;39.20;;;;;;1537430;77;681;-65
2022/03/12 06:53:39;;;;;;;;;;;24.50;39.20;;;;;;1512542;78;1776;-69
2022/03/12 06:55:42;;;;;;;;;;;24.40;38.90;;;;;;1525106;77;1155;-67
2022/03/12 06:57:44;;;;;;;;;;;24.40;38.90;;;;;;1513402;78;781;-67
2022/03/12 06:59:46;;;;;;;;;;;24.40;38.80;;;;;;1507771;79;755;-66
2022/03/12 07:01:48;;;;;;;;;;;24.40;38.80;;;;;;1509984;77;589;-67
2022/03/12 07:03:50;;;;;;;;;;;24.30;38.80;;;;;;1537631;76;796;-67
2022/03/12 07:05:52;;;;;;;;;;;24.30;38.80;;;;;;1536741;76;1070;-67
2022/03/12 07:07:54;;;;;;;;;;;24.30;38.80;;;;;;1540088;76;1939;-67
2022/03/12 07:09:56;;;;;;;;;;;24.20;38.70;;;;;;1537002;76;749;-66
2022/03/12 07:11:58;;;;;;;;;;;24.20;38.70;;;;;;1540816;76;753;-67
2022/03/12 07:14:00;;;;;;;;;;;24.20;38.60;;;;;;1537668;76;830;-66
2022/03/12 07:16:02;;;;;;;;;;;24.10;38.60;;;;;;1550202;76;1072;-67
2022/03/12 07:18:04;;;;;;;;;;;24.10;38.60;;;;;;1541039;76;790;-65
2022/03/12 07:20:07;;;;;;;;;;;24.10;38.60;;;;;;1533636;76;772;-67
2022/03/12 07:22:08;;;;;;;;;;;24.00;38.60;;;;;;1539075;76;756;-66
2022/03/12 07:24:12;;;;;;;;;;;24.00;38.50;;;;;;1537202;76;1158;-66
2022/03/12 07:26:14;;;;;;;;;;;24.00;38.60;;;;;;1542723;76;745;-67
2022/03/12 07:28:18;;;;;;;;;;;24.00;38.60;;;;;;1549552;76;1909;-66
2022/03/12 07:30:21;;;;;;;;;;;24.00;38.70;;;;;;1541727;76;1617;-69
2022/03/12 07:32:23;;;;;;;;;;;24.00;38.70;;;;;;1538191;76;765;-65
2022/03/12 07:36:48;;;;;;;;;;;24.00;38.60;;;;;;1488533;80;1564;-66
2022/03/12 07:38:50;;;;;;;;;;;24.00;38.60;;;;;;1491402;78;735;-67
2022/03/12 07:40:52;;;;;;;;;;;24.00;38.60;;;;;;1499484;78;830;-67
2022/03/12 07:42:55;;;;;;;;;;;24.00;38.60;;;;;;1503113;78;792;-65
2022/03/12 07:44:57;;;;;;;;;;;24.00;38.70;;;;;;1499601;78;1230;-67
2022/03/12 07:46:59;;;;;;;;;;;23.90;38.70;;;;;;1488729;79;751;-67
2022/03/12 07:49:03;;;;;;;;;;;23.90;38.70;;;;;;1497264;79;1903;-67
2022/03/12 07:51:06;;;;;;;;;;;24.00;38.80;;;;;;1507603;79;644;-67
2022/03/12 07:53:08;;;;;;;;;;;23.90;38.80;;;;;;1502797;79;625;-67
2022/03/12 07:55:10;;;;;;;;;;;23.90;38.70;;;;;;1495747;79;1148;-67
2022/03/12 07:57:13;;;;;;;;;;;24.00;38.70;;;;;;1499704;79;742;-66
2022/03/12 07:59:15;;;;;;;;;;;23.90;38.70;;;;;;1493353;79;823;-67
2022/03/12 08:01:16;;;;;;;;;;;23.90;38.70;;;;;;1496403;79;695;-72
2022/03/12 08:03:18;;;;;;;;;;;24.00;38.60;;;;;;1490652;79;785;-66
2022/03/12 08:05:23;;;;;;;;;;;24.00;38.60;;;;;;1492620;79;1147;-67
2022/03/12 08:07:25;;;;;;;;;;;24.00;38.60;;;;;;1490811;79;1675;-68
2022/03/12 08:09:27;;;;;;;;;;;23.90;38.50;;;;;;1498257;79;1922;-67
2022/03/12 08:11:29;;;;;;;;;;;23.90;38.60;;;;;;1494907;79;734;-67
2022/03/12 08:13:31;;;;;;;;;;;23.90;38.60;;;;;;1480567;79;734;-67
2022/03/12 08:15:33;;;;;;;;;;;23.90;38.50;;;;;;1499115;77;1141;-68
2022/03/12 08:17:35;;;;;;;;;;;23.90;38.50;;;;;;1491942;79;694;-67
2022/03/12 08:19:38;;;;;;;;;;;23.90;38.50;;;;;;1494382;79;755;-70
2022/03/12 08:21:40;;;;;;;;;;;23.90;38.50;;;;;;1496246;79;683;-66
2022/03/12 08:23:42;;;;;;;;;;;23.90;38.50;;;;;;1494278;79;748;-68
2022/03/12 08:25:44;;;;;;;;;;;23.90;38.50;;;;;;1501684;77;1142;-67
2022/03/12 08:27:46;;;;;;;;;;;23.90;38.40;;;;;;1496412;79;743;-67
2022/03/12 08:29:48;;;;;;;;;;;23.90;38.50;;;;;;1499472;79;1930;-66
2022/03/12 08:31:49;;;;;;;;;;;23.80;38.40;;;;;;1491501;79;739;-67
2022/03/12 08:33:51;;;;;;;;;;;23.80;38.40;;;;;;1494322;79;726;-66
2022/03/12 08:35:53;;;;;;;;;;;23.90;38.50;;;;;;1495757;77;1253;-68
2022/03/12 08:37:55;;;;;;;;;;;23.70;38.40;;;;;;1496341;79;794;-68
2022/03/12 08:39:57;;;;;;;;;;;23.80;38.40;;;;;;1494000;79;700;-67
2022/03/12 08:41:59;;;;;;;;;;;23.80;38.40;;;;;;1496303;79;777;-65
2022/03/12 08:44:01;;;;;;;;;;;23.80;38.40;;;;;;1492650;79;742;-66
2022/03/12 08:46:05;;;;;;;;;;;23.90;38.40;;;;;;1492060;77;1219;-67
2022/03/12 08:48:07;;;;;;;;;;;23.90;38.40;;;;;;1501222;79;768;-66
2022/03/12 08:50:09;;;;;;;;;;;23.90;38.40;;;;;;1493554;79;1908;-69
2022/03/12 08:52:12;;;;;;;;;;;23.90;38.30;;;;;;1497238;79;755;-66
2022/03/12 08:54:14;;;;;;;;;;;23.90;38.40;;;;;;1490262;79;788;-67
2022/03/12 08:56:16;;;;;;;;;;;23.90;38.40;;;;;;1495367;77;1066;-66
2022/03/12 08:58:18;;;;;;;;;;;23.90;38.30;;;;;;1496898;79;758;-66
2022/03/12 09:00:20;;;;;;;;;;;23.90;38.30;;;;;;1497105;79;767;-67
2022/03/12 09:02:23;;;;;;;;;;;23.90;38.30;;;;;;1500045;79;738;-66
2022/03/12 09:04:25;;;;;;;;;;;24.00;38.30;;;;;;1494678;79;761;-67
2022/03/12 09:06:28;;;;;;;;;;;23.90;38.20;;;;;;1489007;79;1614;-66
2022/03/12 09:08:30;;;;;;;;;;;24.00;38.10;;;;;;1478289;79;1915;-67
2022/03/12 09:10:32;;;;;;;;;;;24.00;38.10;;;;;;1487731;79;768;-67
2022/03/12 09:12:34;;;;;;;;;;;24.10;38.10;;;;;;1486220;79;737;-66
2022/03/12 09:14:36;;;;;;;;;;;24.00;37.90;;;;;;1491750;77;1157;-66
2022/03/12 09:16:38;;;;;;;;;;;24.20;37.90;;;;;;1500991;79;748;-67
2022/03/12 09:18:41;;;;;;;;;;;24.10;37.80;;;;;;1492371;79;735;-69
2022/03/12 09:20:47;;;;;;;;;;;24.20;37.80;;;;;;1471453;79;749;-73
2022/03/12 09:22:47;;;;;;;;;;;24.20;37.70;;;;;;1452318;80;1813;-66
2022/03/12 09:24:50;;;;;;;;;;;24.20;37.60;;;;;;1476826;79;1140;-67
2022/03/12 09:26:51;;;;;;;;;;;24.20;37.50;;;;;;1468400;79;686;-66
2022/03/12 09:28:53;;;;;;;;;;;24.20;37.50;;;;;;1478210;79;1942;-66
2022/03/12 09:30:55;;;;;;;;;;;24.30;37.60;;;;;;1475297;79;826;-67
2022/03/12 09:32:57;;;;;;;;;;;24.20;37.30;;;;;;1482473;79;813;-70
2022/03/12 09:34:59;;;;;;;;;;;24.30;37.50;;;;;;1494658;77;1126;-67
2022/03/12 09:37:02;;;;;;;;;;;24.30;37.40;;;;;;1484331;79;786;-67
2022/03/12 09:39:04;;;;;;;;;;;24.30;37.30;;;;;;1497096;79;811;-66
2022/03/12 09:41:06;;;;;;;;;;;24.30;37.30;;;;;;1485697;79;926;-67
2022/03/12 09:43:08;;;;;;;;;;;24.30;37.30;;;;;;1487140;79;869;-65
2022/03/12 09:45:10;;;;;;;;;;;24.40;37.20;;;;;;1481551;79;1176;-66
2022/03/12 09:47:14;;;;;;;;;;;24.40;37.20;;;;;;1479592;79;735;-66
2022/03/12 09:49:15;;;;;;;;;;;24.40;37.10;;;;;;1481344;79;1957;-66
2022/03/12 09:51:17;;;;;;;;;;;24.40;37.20;;;;;;1477665;79;753;-71
2022/03/12 09:53:19;;;;;;;;;;;24.40;37.10;;;;;;1485210;79;761;-69
2022/03/12 09:55:22;;;;;;;;;;;24.40;37.10;;;;;;1479015;79;1128;-66
2022/03/12 09:57:24;;;;;;;;;;;24.40;37.10;;;;;;1486550;79;763;-68
2022/03/12 09:59:26;;;;;;;;;;;24.40;37.10;;;;;;1480867;79;783;-68
2022/03/12 10:01:28;;;;;;;;;;;24.40;37.00;;;;;;1491554;79;753;-66
2022/03/12 10:03:30;;;;;;;;;;;24.40;37.10;;;;;;1488417;79;730;-66
2022/03/12 10:05:32;;;;;;;;;;;24.40;37.00;;;;;;1489675;79;1149;-66
2022/03/12 10:07:34;;;;;;;;;;;24.40;37.00;;;;;;1506362;79;759;-66
2022/03/12 10:09:39;;;;;;;;;;;24.40;37.00;;;;;;1507748;79;1945;-66
2022/03/12 10:11:45;;;;;;;;;;;24.40;37.00;;;;;;1496996;79;793;-66
2022/03/12 10:13:47;;;;;;;;;;;24.40;37.00;;;;;;1496666;79;709;-67
2022/03/12 10:15:49;;;;;;;;;;;24.40;37.00;;;;;;1496891;79;1143;-66
2022/03/12 10:17:51;;;;;;;;;;;24.40;37.00;;;;;;1496765;79;738;-67
2022/03/12 10:19:53;;;;;;;;;;;24.40;37.00;;;;;;1490723;79;799;-66
2022/03/12 10:21:55;;;;;;;;;;;24.40;37.10;;;;;;1496726;79;762;-67
2022/03/12 10:23:59;;;;;;;;;;;24.40;37.10;;;;;;1494843;79;703;-66
2022/03/12 10:26:00;;;;;;;;;;;24.40;37.00;;;;;;1492952;79;1513;-67
2022/03/12 10:28:02;;;;;;;;;;;24.40;37.10;;;;;;1501484;79;796;-64
2022/03/12 10:30:05;;;;;;;;;;;24.30;37.00;;;;;;1507582;79;1949;-64
2022/03/12 10:32:26;;;;;;;;;;;24.40;37.00;;;;;;1503167;79;718;-64
2022/03/12 10:34:28;;;;;;;;;;;24.30;37.00;;;;;;1493408;79;731;-64
2022/03/12 10:36:32;;;;;;;;;;;24.40;37.00;;;;;;1485607;77;1155;-64
2022/03/12 10:38:41;;;;;;;;;;;24.40;37.00;;;;;;1470682;80;1131;-63
2022/03/12 10:40:43;;;;;;;;;;;24.40;37.00;;;;;;1496031;79;1845;-64
2022/03/12 10:42:46;;;;;;;;;;;24.40;36.90;;;;;;1492193;79;793;-66
2022/03/12 10:44:48;;;;;;;;;;;24.30;37.00;;;;;;1496710;79;1200;-64
2022/03/12 10:46:50;;;;;;;;;;;24.40;36.90;;;;;;1502399;79;769;-64
2022/03/12 10:48:56;;;;;;;;;;;24.40;37.00;;;;;;1495939;79;787;-64
2022/03/12 10:50:58;;;;;;;;;;;24.40;36.90;;;;;;1492119;79;1924;-64
2022/03/12 10:53:05;;;;;;;;;;;24.50;36.90;;;;;;1499979;79;698;-66
2022/03/12 10:55:05;;;;;;;;;;;24.30;35.50;;;;;;1492120;79;1627;-66
2022/03/12 10:57:08;;;;;;;;;;;24.30;35.80;;;;;;1485531;79;1699;-66
2022/03/12 10:59:14;;;;;;;;;;;24.20;35.20;;;;;;1490503;79;652;-65
2022/03/12 11:01:17;;;;;;;;;;;24.20;35.20;;;;;;1507471;79;704;-65
2022/03/12 11:03:20;;;;;;;;;;;24.00;34.70;;;;;;1485290;79;1835;-66
2022/03/12 11:05:27;;;;;;;;;;;24.00;34.60;;;;;;1493205;79;1184;-66
2022/03/12 11:07:30;;;;;;;;;;;24.00;34.50;;;;;;1506258;79;1925;-65
2022/03/12 11:09:33;;;;;;;;;;;23.90;34.60;;;;;;1507531;79;1906;-65
2022/03/12 11:11:36;;;;;;;;;;;23.90;34.20;;;;;;1497396;79;1879;-66
2022/03/12 11:13:50;;;;;;;;;;;23.90;34.10;;;;;;1499918;79;753;-65
2022/03/12 11:16:05;;;;;;;;;;;23.90;33.70;;;;;;1485860;77;1138;-65
2022/03/12 11:18:07;;;;;;;;;;;23.90;33.30;;;;;;1496483;79;718;-65
2022/03/12 11:20:14;;;;;;;;;;;23.80;33.20;;;;;;1491740;79;839;-67
2022/03/12 11:22:15;;;;;;;;;;;23.70;33.50;;;;;;1495279;79;1630;-68
2022/03/12 11:24:21;;;;;;;;;;;23.70;33.40;;;;;;1492369;79;699;-69
2022/03/12 11:26:24;;;;;;;;;;;23.80;33.40;;;;;;1494267;79;1616;-69
2022/03/12 11:28:26;;;;;;;;;;;23.70;32.20;;;;;;1482263;79;1696;-69
2022/03/12 11:30:28;;;;;;;;;;;23.60;31.50;;;;;;1485546;79;1909;-68
2022/03/12 11:32:34;;;;;;;;;;;23.60;31.80;;;;;;1484366;79;764;-69
2022/03/12 11:34:35;;;;;;;;;;;23.60;32.30;;;;;;1483622;79;1571;-67
2022/03/12 11:36:38;;;;;;;;;;;23.60;32.60;;;;;;1486127;79;1217;-68
2022/03/12 11:38:40;;;;;;;;;;;23.60;32.60;;;;;;1484942;79;800;-68
2022/03/12 11:40:42;;;;;;;;;;;23.50;32.30;;;;;;1482156;79;728;-69
2022/03/12 11:42:44;;;;;;;;;;;23.60;32.30;;;;;;1473807;79;921;-68
2022/03/12 11:44:47;;;;;;;;;;;23.60;32.40;;;;;;1472798;79;1192;-71
2022/03/12 11:46:48;;;;;;;;;;;23.50;32.40;;;;;;1481698;79;802;-70
2022/03/12 11:48:50;;;;;;;;;;;23.60;32.60;;;;;;1478315;79;740;-70
2022/03/12 11:50:52;;;;;;;;;;;23.60;32.60;;;;;;1493829;79;1945;-68
2022/03/12 11:52:54;;;;;;;;;;;23.60;31.50;;;;;;1496861;79;742;-68
2022/03/12 11:54:56;;;;;;;;;;;23.60;31.50;;;;;;1479360;79;1161;-72
2022/03/12 11:56:59;;;;;;;;;;;23.50;30.10;;;;;;1467809;80;720;-71
2022/03/12 11:59:00;;;;;;;;;;;23.50;29.90;;;;;;1473543;79;739;-69
2022/03/12 12:01:04;;;;;;;;;;;23.50;29.50;;;;;;1482157;79;711;-70
2022/03/12 12:03:07;;;;;;;;;;;23.40;30.00;;;;;;1469776;80;708;-74
2022/03/12 12:05:11;;;;;;;;;;;23.40;30.20;;;;;;1461922;79;1151;-69
2022/03/12 12:07:13;;;;;;;;;;;23.40;29.70;;;;;;1454775;82;725;-70
2022/03/12 12:09:16;;;;;;;;;;;23.30;28.20;;;;;;1454770;82;634;-71
2022/03/12 12:11:18;;;;;;;;;;;23.20;28.20;;;;;;1445737;81;1887;-74
2022/03/12 12:13:21;;;;;;;;;;;23.00;25.20;;;;;;1473772;81;759;-69